KMMU

Morristown Municipal Airport

Airport
ICAO code
KMMU
Summary
ICAO Region
NAM
ICAO Territory
Location

Morristown, New Jersey,

Coordinates
40° 47' 43" N , 74° 25' 31" W
KCC
Metar
KMMU 280755Z AUTO 01004KT 10SM SCT015 11/10 A3027 RMK AO2

Description

Morristown Municipal Airport is a public airport located 5 km east of the central business district of Morristown, in Morris County, New Jersey.

Climatology

Humid continental climate (Köppen climate classification Dfa) - characterized by hot, humid summers and cool winters. Significant amounts of precipitation occur in all seasons in most areas. Winter snowfall is associated with large storms that the westerlies steer from west to east. Most summer rainfall occurs during thunderstorms and occasional tropical storms (hurricanes).

Runways

Designator Length Width Surface Rops
13/31 1219 46 ASP Yes/Yes
5/23 1828 46 ASP Yes/Yes

Airport map

Aerial View

SKYbrary Partners:

Safety knowledge contributed by: